Time;durP1;ratioP1;P1;durP2;ratioP2;P2;SDS_P1;SDS_P2;PMS_P1;PMS_P2;Temp;Humidity;BMP_temperature;BMP_pressure;BME280_temperature;BME280_humidity;BME280_pressure;Samples;Min_cycle;Max_cycle;Signal;HPM_P1;HPM_P2
2022/06/30 00:00:31;;;;;;;14.68;9.07;;;21.20;99.90;;;;;;5094012;28;20528;-61
2022/06/30 00:02:56;;;;;;;19.00;9.35;;;21.10;99.90;;;;;;5093578;28;20192;-61
2022/06/30 00:05:22;;;;;;;15.77;8.75;;;21.10;99.90;;;;;;5094764;28;20232;-61
2022/06/30 00:07:48;;;;;;;19.30;9.23;;;21.00;99.90;;;;;;5095063;28;20539;-61
2022/06/30 00:10:14;;;;;;;16.58;9.60;;;21.00;99.90;;;;;;5094711;28;20200;-61
2022/06/30 00:12:40;;;;;;;17.35;9.10;;;21.10;99.90;;;;;;5094795;28;20272;-61
2022/06/30 00:15:07;;;;;;;15.32;9.32;;;21.10;99.90;;;;;;5094580;28;20721;-61
2022/06/30 00:17:33;;;;;;;16.60;9.52;;;21.20;99.90;;;;;;5094410;28;20188;-61
2022/06/30 00:19:59;;;;;;;18.80;8.98;;;21.30;99.90;;;;;;5094732;28;20521;-61
2022/06/30 00:22:25;;;;;;;14.38;9.38;;;21.30;99.90;;;;;;5095075;28;20180;-61
2022/06/30 00:24:52;;;;;;;17.85;9.27;;;21.20;99.90;;;;;;5094563;28;20189;-61
2022/06/30 00:27:18;;;;;;;16.33;9.52;;;21.10;99.90;;;;;;5094621;28;20181;-61
2022/06/30 00:29:44;;;;;;;13.65;8.85;;;21.10;99.90;;;;;;5094474;28;20272;-61
2022/06/30 00:32:10;;;;;;;21.70;8.95;;;21.10;99.90;;;;;;5088083;28;20598;-61
2022/06/30 00:34:36;;;;;;;23.13;8.90;;;21.00;99.90;;;;;;5074222;28;20300;-61
2022/06/30 00:37:02;;;;;;;13.68;8.38;;;20.90;99.90;;;;;;5056355;28;20556;-61
2022/06/30 00:39:29;;;;;;;17.33;8.65;;;20.80;99.90;;;;;;5074204;28;20177;-61
2022/06/30 00:41:55;;;;;;;16.40;8.63;;;20.80;99.90;;;;;;5074084;28;20182;-61
2022/06/30 00:44:22;;;;;;;13.68;9.23;;;20.80;99.90;;;;;;5074120;28;20182;-61
2022/06/30 00:46:48;;;;;;;12.73;8.18;;;20.80;99.90;;;;;;5073889;28;20503;-61
2022/06/30 00:49:16;;;;;;;15.32;9.00;;;20.80;99.90;;;;;;5073886;28;20581;-61
2022/06/30 00:51:42;;;;;;;12.27;8.55;;;20.80;99.90;;;;;;5074161;28;20173;-61
2022/06/30 00:54:10;;;;;;;13.73;9.05;;;20.90;99.90;;;;;;5073942;28;20205;-61
2022/06/30 00:56:40;;;;;;;18.13;9.30;;;20.90;99.90;;;;;;5073854;28;20178;-61
2022/06/30 00:59:08;;;;;;;13.23;8.88;;;20.90;99.90;;;;;;5074062;28;20170;-61
2022/06/30 01:01:36;;;;;;;15.30;8.27;;;20.90;99.90;;;;;;5073624;28;20206;-61
2022/06/30 01:04:02;;;;;;;14.48;8.10;;;20.90;99.90;;;;;;5073910;28;20182;-61
2022/06/30 01:06:29;;;;;;;12.48;9.20;;;21.00;99.90;;;;;;5073614;28;20287;-61
2022/06/30 01:08:55;;;;;;;13.30;8.75;;;20.90;99.90;;;;;;5073717;28;20252;-61
2022/06/30 01:14:06;;;;;;;14.57;9.13;;;20.90;99.90;;;;;;5074174;28;20259;-62
2022/06/30 01:16:31;;;;;;;10.80;8.60;;;20.80;99.90;;;;;;5077192;28;20688;-61
2022/06/30 01:18:57;;;;;;;16.25;8.30;;;20.80;99.90;;;;;;5093779;28;20169;-62
2022/06/30 01:21:27;;;;;;;15.57;8.85;;;20.70;99.90;;;;;;5093834;28;20220;-61
2022/06/30 01:23:53;;;;;;;18.73;9.57;;;20.60;99.90;;;;;;5093474;28;20188;-61
2022/06/30 01:26:23;;;;;;;17.73;9.98;;;20.60;99.90;;;;;;5093535;28;20246;-60
2022/06/30 01:28:50;;;;;;;17.65;10.02;;;20.60;99.90;;;;;;5093338;28;20169;-61
2022/06/30 01:31:16;;;;;;;17.30;10.35;;;20.60;99.90;;;;;;5093445;28;20181;-60
2022/06/30 01:33:42;;;;;;;17.02;10.15;;;20.60;99.90;;;;;;5074122;28;20711;-61
2022/06/30 01:36:08;;;;;;;11.80;8.73;;;20.60;99.90;;;;;;5073055;28;20177;-61
2022/06/30 01:38:33;;;;;;;16.50;9.15;;;20.60;99.90;;;;;;5054328;28;20182;-61
2022/06/30 01:40:59;;;;;;;15.45;8.65;;;20.50;99.90;;;;;;5072910;28;20182;-61
2022/06/30 01:43:25;;;;;;;20.38;9.60;;;20.40;99.90;;;;;;5073406;28;20695;-61
2022/06/30 01:45:51;;;;;;;14.45;9.25;;;20.30;99.90;;;;;;5073010;28;20331;-61
2022/06/30 01:48:16;;;;;;;14.80;8.48;;;20.30;99.90;;;;;;5073095;28;20223;-60
2022/06/30 01:50:42;;;;;;;15.88;9.55;;;20.20;99.90;;;;;;5072685;28;20528;-61
2022/06/30 01:53:08;;;;;;;11.32;8.73;;;20.00;99.90;;;;;;5072882;28;20201;-60
2022/06/30 01:55:34;;;;;;;23.02;11.00;;;19.90;99.90;;;;;;5072353;28;20212;-62
2022/06/30 01:58:00;;;;;;;14.73;9.20;;;19.90;99.90;;;;;;5073275;28;20318;-60
2022/06/30 02:00:27;;;;;;;20.50;9.90;;;19.80;99.90;;;;;;5072906;28;20318;-60
2022/06/30 02:02:55;;;;;;;14.95;9.10;;;19.70;99.90;;;;;;5072402;28;20185;-60
2022/06/30 02:05:21;;;;;;;16.75;9.55;;;19.70;99.90;;;;;;5072526;28;20295;-61
2022/06/30 02:07:47;;;;;;;13.27;10.15;;;19.60;99.90;;;;;;5072380;28;20656;-61
2022/06/30 02:10:19;;;;;;;14.13;9.47;;;19.60;99.90;;;;;;5072399;28;20239;-60
2022/06/30 02:12:45;;;;;;;14.73;9.73;;;19.60;99.90;;;;;;5072309;28;20186;-60
2022/06/30 02:15:14;;;;;;;18.88;11.07;;;19.50;99.90;;;;;;5077376;28;20645;-60
2022/06/30 02:17:40;;;;;;;20.02;12.75;;;19.50;99.90;;;;;;5086223;28;20287;-61
2022/06/30 02:20:07;;;;;;;29.33;13.60;;;19.50;99.90;;;;;;5092276;28;20188;-60
2022/06/30 02:22:35;;;;;;;16.88;11.27;;;19.40;99.90;;;;;;5092528;28;20267;-61
2022/06/30 02:25:02;;;;;;;23.07;12.53;;;19.40;99.90;;;;;;5092092;28;20188;-61
2022/06/30 02:27:28;;;;;;;25.33;11.07;;;19.40;99.90;;;;;;5092442;28;20567;-60
2022/06/30 02:29:54;;;;;;;18.60;10.83;;;19.40;99.90;;;;;;5091965;28;20181;-61
2022/06/30 02:32:21;;;;;;;24.87;11.53;;;19.30;99.90;;;;;;5073846;28;20189;-60
2022/06/30 02:34:49;;;;;;;19.17;11.38;;;19.40;99.90;;;;;;5091886;28;20197;-61
2022/06/30 02:37:15;;;;;;;15.93;10.13;;;19.40;99.90;;;;;;5073767;28;20185;-60
2022/06/30 02:39:41;;;;;;;18.17;10.20;;;19.40;99.90;;;;;;5092309;28;20177;-61
2022/06/30 02:42:07;;;;;;;32.05;11.35;;;19.40;99.90;;;;;;5092211;28;20188;-60
2022/06/30 02:44:33;;;;;;;24.75;12.23;;;19.40;99.90;;;;;;5092169;28;20522;-61
2022/06/30 02:46:59;;;;;;;22.38;12.05;;;19.40;99.90;;;;;;5091664;28;20636;-60
2022/06/30 02:49:25;;;;;;;22.65;10.98;;;19.50;99.90;;;;;;5092168;28;20184;-60
2022/06/30 02:51:52;;;;;;;21.38;10.93;;;19.50;99.90;;;;;;5091577;28;20625;-60
2022/06/30 02:54:18;;;;;;;24.00;11.63;;;19.60;99.90;;;;;;5092125;28;20546;-61
2022/06/30 02:56:44;;;;;;;20.50;10.90;;;19.60;99.90;;;;;;5091919;28;20187;-61
2022/06/30 02:59:10;;;;;;;24.60;11.57;;;19.70;99.90;;;;;;5092339;28;20540;-61
2022/06/30 03:01:36;;;;;;;23.50;10.43;;;19.70;99.90;;;;;;5091908;28;20169;-60
2022/06/30 03:04:02;;;;;;;22.33;10.18;;;19.70;99.90;;;;;;5091468;28;20215;-61
2022/06/30 03:06:30;;;;;;;17.50;10.52;;;19.70;99.90;;;;;;5091193;28;20228;-60
2022/06/30 03:08:57;;;;;;;16.80;9.68;;;19.70;99.90;;;;;;5091548;28;20259;-60
2022/06/30 03:11:24;;;;;;;16.25;9.75;;;19.80;99.90;;;;;;5091474;28;20189;-60
2022/06/30 03:13:50;;;;;;;17.30;10.55;;;19.90;99.90;;;;;;5091475;28;20238;-60
2022/06/30 03:16:16;;;;;;;20.65;10.77;;;20.00;99.90;;;;;;5090381;28;20189;-61
2022/06/30 03:18:42;;;;;;;18.20;10.40;;;20.10;99.90;;;;;;5071224;28;20181;-61
2022/06/30 03:21:08;;;;;;;18.90;9.70;;;20.20;99.90;;;;;;5071138;28;20207;-61
2022/06/30 03:23:34;;;;;;;19.67;10.27;;;20.30;99.90;;;;;;5071663;28;20185;-61
2022/06/30 03:26:00;;;;;;;20.70;10.52;;;20.30;99.90;;;;;;5071005;28;20181;-61
2022/06/30 03:28:27;;;;;;;19.67;10.55;;;20.40;99.90;;;;;;5071240;28;20213;-61
2022/06/30 03:30:54;;;;;;;19.10;10.93;;;20.50;99.90;;;;;;5071142;28;20197;-60
2022/06/30 03:33:20;;;;;;;16.42;10.65;;;20.60;99.90;;;;;;5086661;28;20640;-61
2022/06/30 03:35:46;;;;;;;21.48;11.45;;;20.70;99.90;;;;;;5090747;28;20274;-62
2022/06/30 03:38:13;;;;;;;17.60;10.07;;;20.80;99.90;;;;;;5091250;28;20189;-61
2022/06/30 03:40:40;;;;;;;16.92;10.38;;;20.80;99.90;;;;;;5091423;28;20181;-61
2022/06/30 03:43:06;;;;;;;20.95;11.20;;;20.80;99.90;;;;;;5091207;28;20173;-60
2022/06/30 03:45:33;;;;;;;18.80;11.15;;;20.70;99.90;;;;;;5091332;28;20177;-61
2022/06/30 03:48:04;;;;;;;20.48;12.20;;;20.70;99.90;;;;;;5090605;28;20590;-61
2022/06/30 03:50:30;;;;;;;18.25;11.07;;;20.70;99.90;;;;;;5091377;28;20183;-61
2022/06/30 03:52:57;;;;;;;15.20;11.32;;;20.70;99.90;;;;;;5090731;28;20189;-61
2022/06/30 03:55:23;;;;;;;18.20;10.55;;;20.70;99.90;;;;;;5090817;28;20209;-62
2022/06/30 03:57:49;;;;;;;16.33;10.45;;;20.80;99.90;;;;;;5090826;28;20173;-62
2022/06/30 04:00:16;;;;;;;16.85;10.93;;;20.90;99.90;;;;;;5090988;28;20219;-61
2022/06/30 04:02:42;;;;;;;16.73;10.48;;;21.10;99.90;;;;;;5093385;28;20506;-62
2022/06/30 04:05:08;;;;;;;14.02;10.57;;;21.20;99.90;;;;;;5094909;28;20252;-61
2022/06/30 04:07:45;;;;;;;18.30;10.48;;;21.40;99.90;;;;;;5094914;28;20551;-61
2022/06/30 04:10:13;;;;;;;23.92;11.52;;;21.50;99.90;;;;;;5094759;28;20176;-61
2022/06/30 04:12:39;;;;;;;22.10;10.45;;;21.70;99.90;;;;;;5094515;28;20697;-61
2022/06/30 04:15:07;;;;;;;15.48;10.23;;;21.80;99.90;;;;;;5094203;28;20232;-61
2022/06/30 04:17:33;;;;;;;17.10;10.48;;;21.80;99.90;;;;;;5082408;28;20326;-61
2022/06/30 04:20:04;;;;;;;16.05;10.45;;;21.90;99.90;;;;;;5074105;28;20251;-61
2022/06/30 04:22:30;;;;;;;25.80;14.93;;;22.00;99.90;;;;;;5073778;28;20170;-60
2022/06/30 04:24:56;;;;;;;18.27;9.80;;;22.20;99.90;;;;;;5073720;28;20188;-63
2022/06/30 04:27:22;;;;;;;21.98;9.90;;;22.30;99.90;;;;;;5074326;28;20170;-61
2022/06/30 04:29:48;;;;;;;15.98;10.18;;;22.40;99.90;;;;;;5073884;28;20203;-61
2022/06/30 04:34:58;;;;;;;12.48;9.25;;;22.70;99.90;;;;;;5093741;28;20219;-61
2022/06/30 04:37:24;;;;;;;11.45;8.15;;;22.90;99.90;;;;;;5093760;28;20184;-62
2022/06/30 04:41:23;;;;;;;20.15;9.15;;;23.10;99.90;;;;;;5093854;28;20208;-61
2022/06/30 04:42:35;;;;;;;20.52;9.70;;;23.30;99.90;;;;;;5093603;28;20227;-61
2022/06/30 04:45:01;;;;;;;13.40;8.55;;;23.40;99.90;;;;;;5075315;28;20204;-61
2022/06/30 04:47:27;;;;;;;17.70;9.23;;;23.60;99.90;;;;;;5093370;28;20207;-62
2022/06/30 04:49:52;;;;;;;15.32;10.30;;;23.80;99.90;;;;;;5093314;28;20189;-62
2022/06/30 04:52:18;;;;;;;15.13;9.75;;;23.90;99.90;;;;;;5093348;28;20230;-61
2022/06/30 04:54:44;;;;;;;35.65;12.57;;;24.00;99.90;;;;;;5092726;28;20246;-62
2022/06/30 04:57:10;;;;;;;30.27;11.80;;;24.10;99.90;;;;;;5093021;28;20193;-62
2022/06/30 04:59:35;;;;;;;27.63;12.25;;;24.20;99.90;;;;;;5092899;28;20199;-66
2022/06/30 05:02:01;;;;;;;15.80;9.93;;;24.30;99.90;;;;;;5076973;28;20194;-61
2022/06/30 05:04:27;;;;;;;14.75;8.80;;;24.40;99.90;;;;;;5081333;28;20229;-63
2022/06/30 05:06:53;;;;;;;12.10;8.38;;;24.50;99.90;;;;;;5081361;28;20195;-62
2022/06/30 05:09:18;;;;;;;11.35;8.55;;;24.60;99.90;;;;;;5063025;28;20224;-63
2022/06/30 05:11:44;;;;;;;14.02;9.32;;;24.70;99.90;;;;;;5082003;28;20221;-64
2022/06/30 05:14:10;;;;;;;22.27;10.38;;;24.70;99.90;;;;;;5080859;28;20291;-66
2022/06/30 05:16:36;;;;;;;22.58;10.68;;;24.70;99.90;;;;;;5080444;28;20720;-62
2022/06/30 05:19:01;;;;;;;20.10;10.60;;;24.60;99.90;;;;;;5080949;28;20192;-62
2022/06/30 05:21:27;;;;;;;23.13;10.00;;;24.60;99.90;;;;;;5081754;28;20247;-63
2022/06/30 05:26:48;;;;;;;15.82;9.80;;;24.80;99.90;;;;;;5025947;28;20215;-62
2022/06/30 05:29:13;;;;;;;19.00;10.10;;;25.10;99.90;;;;;;5081629;28;20193;-67
2022/06/30 05:31:40;;;;;;;19.13;9.98;;;25.20;99.90;;;;;;5080623;28;20268;-63
2022/06/30 05:34:06;;;;;;;22.73;10.00;;;25.20;99.90;;;;;;5060156;28;20244;-66
2022/06/30 05:36:32;;;;;;;27.38;10.50;;;25.20;99.90;;;;;;5081374;28;20617;-63
2022/06/30 05:38:59;;;;;;;28.95;11.38;;;25.30;99.90;;;;;;5062521;28;20656;-64
2022/06/30 05:41:25;;;;;;;28.30;11.18;;;25.40;99.90;;;;;;5081611;28;20300;-65
2022/06/30 05:43:52;;;;;;;29.40;11.88;;;25.40;99.90;;;;;;5080667;28;20597;-65
2022/06/30 05:46:18;;;;;;;22.23;10.88;;;25.40;99.90;;;;;;5080264;28;20280;-60
2022/06/30 05:48:44;;;;;;;26.35;11.65;;;25.40;99.90;;;;;;5061996;28;20189;-62
2022/06/30 05:51:10;;;;;;;27.90;10.88;;;25.60;99.90;;;;;;5080672;28;20192;-65
2022/06/30 05:53:36;;;;;;;20.38;11.18;;;25.60;99.90;;;;;;5080466;28;20186;-63
2022/06/30 05:56:02;;;;;;;24.15;11.70;;;25.70;99.90;;;;;;5080133;28;20244;-64
2022/06/30 05:58:27;;;;;;;23.83;11.55;;;25.90;99.90;;;;;;5080579;28;20196;-65
2022/06/30 06:00:53;;;;;;;26.77;11.32;;;26.00;99.90;;;;;;5061150;28;20262;-63
2022/06/30 06:03:19;;;;;;;24.95;11.50;;;26.10;99.90;;;;;;5080801;28;20286;-64
2022/06/30 06:05:45;;;;;;;17.52;10.80;;;26.20;99.90;;;;;;5080343;28;20245;-64
2022/06/30 06:08:12;;;;;;;15.57;10.43;;;26.20;99.90;;;;;;5079870;28;20254;-63
2022/06/30 06:10:38;;;;;;;20.45;10.23;;;26.20;99.90;;;;;;5080942;28;20181;-64
2022/06/30 06:13:05;;;;;;;27.73;11.93;;;26.20;99.90;;;;;;5080443;28;20208;-63
2022/06/30 06:15:31;;;;;;;20.67;11.23;;;26.30;99.90;;;;;;5077983;28;20320;-62
2022/06/30 06:17:58;;;;;;;23.33;9.75;;;26.40;99.90;;;;;;5078087;28;20272;-62
2022/06/30 06:20:24;;;;;;;24.33;9.70;;;26.50;99.70;;;;;;5079247;28;20191;-63
2022/06/30 06:22:49;;;;;;;19.60;10.18;;;26.60;99.90;;;;;;5078144;28;20584;-62
2022/06/30 06:25:16;;;;;;;16.10;10.50;;;26.70;99.80;;;;;;5078520;28;20193;-64
2022/06/30 06:27:42;;;;;;;23.85;11.95;;;26.90;99.30;;;;;;5078557;28;20242;-62
2022/06/30 06:30:10;;;;;;;24.70;11.10;;;27.00;98.90;;;;;;5078460;28;20233;-63
2022/06/30 06:32:36;;;;;;;27.70;11.82;;;27.00;98.90;;;;;;5059684;28;20278;-64
2022/06/30 06:35:03;;;;;;;32.55;12.40;;;27.20;98.30;;;;;;5079459;28;20525;-64
2022/06/30 06:37:29;;;;;;;49.65;11.93;;;27.30;98.10;;;;;;5061360;28;20189;-63
2022/06/30 06:39:55;;;;;;;29.20;10.52;;;27.20;97.90;;;;;;5080173;28;20558;-61
2022/06/30 06:42:21;;;;;;;22.17;11.65;;;27.20;97.70;;;;;;5079447;28;20197;-60
2022/06/30 06:44:47;;;;;;;25.85;11.65;;;27.20;97.40;;;;;;5060129;28;20198;-63
2022/06/30 06:47:15;;;;;;;25.40;11.32;;;27.20;97.60;;;;;;5060769;28;20249;-61
2022/06/30 06:49:42;;;;;;;23.88;11.27;;;27.30;97.40;;;;;;5079703;28;20234;-62
2022/06/30 06:52:08;;;;;;;27.35;10.98;;;27.40;97.10;;;;;;5080466;28;20192;-61
2022/06/30 06:54:34;;;;;;;23.15;10.38;;;27.50;96.60;;;;;;5080192;28;20592;-61
2022/06/30 06:56:59;;;;;;;18.55;10.90;;;27.60;96.40;;;;;;5079410;28;20554;-63
2022/06/30 06:59:25;;;;;;;31.27;12.43;;;27.90;96.40;;;;;;5079334;28;20631;-61
2022/06/30 07:01:51;;;;;;;19.38;11.30;;;28.20;95.70;;;;;;5079643;28;20198;-64
2022/06/30 07:04:17;;;;;;;26.52;10.98;;;28.50;95.00;;;;;;5079868;28;20594;-62
2022/06/30 07:06:43;;;;;;;26.23;11.80;;;28.80;94.70;;;;;;5079582;28;20601;-63
2022/06/30 07:09:09;;;;;;;25.85;10.38;;;29.10;94.60;;;;;;5079698;28;20188;-62
2022/06/30 07:11:34;;;;;;;23.60;11.10;;;29.30;93.80;;;;;;5079974;28;20504;-61
2022/06/30 07:14:00;;;;;;;18.35;11.70;;;29.60;93.60;;;;;;5078821;28;20192;-62
2022/06/30 07:16:26;;;;;;;24.77;11.23;;;29.70;92.40;;;;;;5079320;28;20185;-62
2022/06/30 07:18:52;;;;;;;15.57;9.98;;;29.60;92.60;;;;;;5061184;28;20484;-62
2022/06/30 07:21:18;;;;;;;27.30;9.93;;;29.70;91.40;;;;;;5079956;28;20262;-62
2022/06/30 07:23:44;;;;;;;24.83;10.43;;;29.80;91.30;;;;;;5079099;28;20199;-62
2022/06/30 07:26:11;;;;;;;20.48;10.65;;;29.90;91.50;;;;;;5079094;28;20193;-62
2022/06/30 07:28:37;;;;;;;32.10;14.10;;;29.90;91.40;;;;;;5079457;28;20272;-63
2022/06/30 07:31:03;;;;;;;29.48;10.85;;;29.80;90.90;;;;;;5078422;28;20628;-63
2022/06/30 07:33:29;;;;;;;30.80;10.60;;;29.80;90.50;;;;;;5079616;28;20201;-63
2022/06/30 07:35:55;;;;;;;22.88;9.63;;;29.90;90.00;;;;;;5078698;28;20310;-64
2022/06/30 07:38:21;;;;;;;22.52;9.32;;;29.80;88.40;;;;;;5083411;28;20292;-62
2022/06/30 07:40:46;;;;;;;25.50;10.07;;;29.70;89.00;;;;;;5083453;28;20587;-62
2022/06/30 07:43:12;;;;;;;13.52;8.98;;;29.80;86.70;;;;;;5064156;28;20604;-62
2022/06/30 07:45:38;;;;;;;14.55;8.98;;;30.00;87.00;;;;;;5082458;28;20523;-62
2022/06/30 07:48:04;;;;;;;17.75;8.45;;;30.10;85.70;;;;;;5082705;28;20516;-63
2022/06/30 07:50:31;;;;;;;15.52;8.45;;;30.30;83.10;;;;;;5083249;28;20193;-62
2022/06/30 07:52:57;;;;;;;18.73;9.40;;;30.30;83.40;;;;;;5064874;28;20227;-62
2022/06/30 07:55:23;;;;;;;15.43;8.45;;;30.10;84.00;;;;;;5082359;28;20217;-64
2022/06/30 07:57:49;;;;;;;22.40;9.93;;;30.00;84.80;;;;;;5082510;28;20267;-62
2022/06/30 08:00:15;;;;;;;22.15;8.63;;;30.30;84.50;;;;;;5063669;28;20209;-63
2022/06/30 08:02:41;;;;;;;28.73;11.25;;;30.40;83.70;;;;;;5082922;28;20201;-63
2022/06/30 08:05:07;;;;;;;20.85;9.32;;;30.50;83.30;;;;;;5065109;28;20592;-62
2022/06/30 08:07:34;;;;;;;19.42;9.40;;;30.50;82.90;;;;;;5082907;28;20220;-61
2022/06/30 08:10:00;;;;;;;16.00;7.85;;;30.60;83.40;;;;;;5082540;28;20617;-62
2022/06/30 08:12:26;;;;;;;20.35;8.60;;;30.70;80.80;;;;;;5082401;28;20188;-62
2022/06/30 08:14:51;;;;;;;17.25;8.38;;;30.70;80.20;;;;;;5081656;28;20271;-63
2022/06/30 08:17:17;;;;;;;17.65;8.70;;;30.70;79.90;;;;;;5083335;28;20234;-62
2022/06/30 08:19:43;;;;;;;15.25;8.00;;;30.70;78.90;;;;;;5082309;28;20181;-60
2022/06/30 08:22:09;;;;;;;19.33;8.48;;;30.80;79.70;;;;;;5081901;28;20189;-62
2022/06/30 08:24:35;;;;;;;15.15;8.23;;;30.80;81.60;;;;;;5082702;28;20196;-64
2022/06/30 08:27:02;;;;;;;14.18;7.13;;;30.80;80.90;;;;;;5081783;28;20186;-62
2022/06/30 08:29:34;;;;;;;6.53;3.08;;;30.90;78.70;;;;;;5081651;28;20186;-62
2022/06/30 08:32:01;;;;;;;11.77;5.45;;;31.00;80.50;;;;;;5082066;28;20682;-62
2022/06/30 08:34:27;;;;;;;5.93;2.60;;;31.10;81.90;;;;;;5082077;28;20282;-61
2022/06/30 08:36:53;;;;;;;6.13;3.95;;;31.20;81.60;;;;;;5082235;28;20240;-63
2022/06/30 08:42:05;;;;;;;8.57;4.07;;;31.30;80.50;;;;;;5082587;28;20233;-61
2022/06/30 08:44:36;;;;;;;9.43;4.95;;;31.50;80.60;;;;;;5081393;28;20244;-63
2022/06/30 08:47:03;;;;;;;10.20;3.78;;;31.70;80.70;;;;;;5081425;28;20694;-60
2022/06/30 08:49:30;;;;;;;11.18;4.78;;;31.90;80.50;;;;;;5063452;28;20184;-63
2022/06/30 08:51:58;;;;;;;3.72;2.20;;;32.00;79.90;;;;;;5081397;28;20271;-63
2022/06/30 08:54:26;;;;;;;4.22;3.00;;;32.20;80.30;;;;;;5081607;28;20224;-63
2022/06/30 08:56:54;;;;;;;9.38;4.80;;;32.20;79.90;;;;;;5081385;28;20239;-63
2022/06/30 08:59:22;;;;;;;12.55;5.00;;;32.30;78.90;;;;;;5062931;28;20521;-60
2022/06/30 09:01:48;;;;;;;2.40;1.98;;;32.40;78.20;;;;;;5081354;28;20639;-62
2022/06/30 09:04:14;;;;;;;6.82;1.88;;;32.50;76.40;;;;;;5081559;28;20201;-63
2022/06/30 09:06:44;;;;;;;8.95;3.25;;;32.60;77.00;;;;;;5081327;28;20709;-64
2022/06/30 09:09:11;;;;;;;4.20;2.05;;;32.80;76.70;;;;;;5081882;28;20665;-64
2022/06/30 09:11:49;;;;;;;2.47;1.85;;;33.00;75.20;;;;;;5081999;28;20214;-63
2022/06/30 09:14:33;;;;;;;1.77;0.68;;;33.20;74.00;;;;;;5080772;28;20261;-63
2022/06/30 09:17:00;;;;;;;0.10;0.10;;;33.00;72.70;;;;;;5081481;28;20354;-63
2022/06/30 09:19:26;;;;;;;0.20;0.10;;;33.00;73.10;;;;;;5081788;28;20657;-62
2022/06/30 09:22:05;;;;;;;0.98;0.98;;;33.20;73.50;;;;;;5081382;28;20184;-65
2022/06/30 09:24:31;;;;;;;3.75;3.47;;;33.30;71.80;;;;;;5081433;28;20276;-62
2022/06/30 09:27:21;;;;;;;2.10;1.33;;;33.30;71.90;;;;;;5081720;28;20292;-62
2022/06/30 09:29:50;;;;;;;0.00;0.00;;;33.40;71.30;;;;;;5080628;28;20257;-63
2022/06/30 09:32:16;;;;;;;0.00;0.00;;;33.40;70.90;;;;;;5080708;28;20185;-63
2022/06/30 09:34:43;;;;;;;12.77;11.70;;;33.50;70.20;;;;;;5081545;28;20316;-62
2022/06/30 09:37:18;;;;;;;0.20;0.20;;;33.50;69.40;;;;;;5081490;28;20197;-64
2022/06/30 09:39:45;;;;;;;0.55;0.47;;;33.70;66.90;;;;;;5080811;28;20672;-62
2022/06/30 09:42:12;;;;;;;1.38;0.57;;;33.80;66.50;;;;;;5080831;28;20185;-62
2022/06/30 09:44:38;;;;;;;0.63;0.63;;;33.90;64.90;;;;;;5080686;28;20645;-62
2022/06/30 09:47:06;;;;;;;0.00;0.00;;;33.80;65.30;;;;;;5079900;28;20189;-62
2022/06/30 09:49:39;;;;;;;0.00;0.00;;;33.90;65.80;;;;;;5080937;28;20197;-62
2022/06/30 09:52:26;;;;;;;0.10;0.10;;;34.00;63.00;;;;;;5062330;28;20571;-61
2022/06/30 09:55:08;;;;;;;1.33;0.85;;;34.10;62.30;;;;;;5079884;28;20224;-67
2022/06/30 09:57:41;;;;;;;0.10;0.10;;;34.20;61.40;;;;;;5081078;28;20220;-60
2022/06/30 10:00:15;;;;;;;2.00;0.93;;;34.30;61.80;;;;;;5079226;28;20202;-63
2022/06/30 10:02:49;;;;;;;0.22;0.22;;;34.40;61.60;;;;;;5080485;28;20648;-62
2022/06/30 10:05:17;;;;;;;0.88;0.75;;;34.40;60.90;;;;;;5079975;28;20294;-61
2022/06/30 10:07:44;;;;;;;0.00;0.00;;;34.40;61.10;;;;;;5080254;28;20192;-62
2022/06/30 10:10:15;;;;;;;0.00;0.00;;;34.40;62.10;;;;;;5061886;28;20666;-62
2022/06/30 10:12:44;;;;;;;0.05;0.05;;;34.50;59.60;;;;;;5080356;28;20224;-63
2022/06/30 10:15:13;;;;;;;0.00;0.00;;;34.70;59.30;;;;;;5079190;28;20268;-63
2022/06/30 10:17:54;;;;;;;0.00;0.00;;;34.90;59.60;;;;;;5080275;28;20223;-60
2022/06/30 10:20:21;;;;;;;9.45;3.47;;;35.10;60.20;;;;;;5080748;28;20241;-64
2022/06/30 10:22:47;;;;;;;0.73;0.73;;;35.20;60.50;;;;;;5079547;28;20649;-61
2022/06/30 10:25:13;;;;;;;0.60;0.60;;;35.20;60.60;;;;;;5079918;28;20189;-62
2022/06/30 10:27:40;;;;;;;0.20;0.20;;;35.10;60.50;;;;;;5080056;28;20276;-62
2022/06/30 10:30:19;;;;;;;2.33;1.27;;;35.20;60.70;;;;;;5078868;28;20185;-61
2022/06/30 10:33:06;;;;;;;1.77;0.95;;;35.40;59.30;;;;;;5080376;28;20193;-63
2022/06/30 10:35:41;;;;;;;0.38;0.38;;;35.40;59.30;;;;;;5079472;28;20322;-63
2022/06/30 10:38:31;;;;;;;0.00;0.00;;;35.50;58.90;;;;;;5079401;28;20181;-63
2022/06/30 10:41:06;;;;;;;0.20;0.10;;;35.40;58.90;;;;;;5079798;28;20170;-61
2022/06/30 10:43:31;;;;;;;0.75;0.75;;;35.40;57.50;;;;;;5079835;28;20184;-62
2022/06/30 10:46:05;;;;;;;2.83;2.08;;;35.20;58.30;;;;;;5079135;28;20220;-62
2022/06/30 10:48:50;;;;;;;0.80;0.73;;;35.50;56.10;;;;;;5080068;28;20185;-63
2022/06/30 10:51:17;;;;;;;2.83;1.85;;;35.80;56.40;;;;;;5079790;28;20272;-64
2022/06/30 10:53:42;;;;;;;0.55;0.55;;;35.90;55.30;;;;;;5080414;28;20671;-61
2022/06/30 10:56:09;;;;;;;2.63;1.25;;;35.90;54.00;;;;;;5078663;28;20225;-64
2022/06/30 10:58:35;;;;;;;0.55;0.25;;;36.00;53.40;;;;;;5079074;28;20256;-63
2022/06/30 11:01:05;;;;;;;0.17;0.17;;;35.90;53.70;;;;;;5078297;28;20268;-62
2022/06/30 11:03:37;;;;;;;0.00;0.00;;;35.80;52.70;;;;;;5079780;28;20236;-62
2022/06/30 11:06:16;;;;;;;0.30;0.30;;;35.80;52.60;;;;;;5079962;28;20269;-63
2022/06/30 11:08:47;;;;;;;1.38;1.13;;;36.00;52.70;;;;;;5079963;28;20322;-62
2022/06/30 11:11:25;;;;;;;0.00;0.00;;;36.20;52.20;;;;;;5078755;28;20526;-62
2022/06/30 11:14:01;;;;;;;0.32;0.32;;;36.50;51.80;;;;;;5078927;28;20260;-63
2022/06/30 11:16:27;;;;;;;1.55;0.70;;;37.00;51.40;;;;;;5078811;28;20204;-62
2022/06/30 11:18:53;;;;;;;0.40;0.40;;;37.60;51.20;;;;;;5079986;28;20188;-64
2022/06/30 11:21:19;;;;;;;0.30;0.17;;;38.00;48.40;;;;;;5061421;28;20605;-62
2022/06/30 11:23:50;;;;;;;0.52;0.43;;;38.40;48.00;;;;;;5079675;28;20230;-62
2022/06/30 11:29:05;;;;;;;0.00;0.00;;;39.30;45.20;;;;;;5079225;28;20237;-62
2022/06/30 11:31:31;;;;;;;1.92;1.65;;;41.00;43.80;;;;;;5079625;28;20187;-61
2022/06/30 11:34:04;;;;;;;1.95;1.13;;;42.80;41.20;;;;;;5079576;28;20350;-64
2022/06/30 11:36:31;;;;;;;0.00;0.00;;;43.40;39.00;;;;;;5079596;28;20260;-62
2022/06/30 11:39:00;;;;;;;3.42;0.90;;;43.20;40.10;;;;;;5078721;28;20197;-62
2022/06/30 11:44:15;;;;;;;0.10;0.10;;;44.60;37.20;;;;;;5078943;28;20251;-63
2022/06/30 11:46:59;;;;;;;0.28;0.28;;;44.20;36.40;;;;;;5079979;28;20637;-64
2022/06/30 11:49:44;;;;;;;0.30;0.30;;;44.60;37.10;;;;;;5079498;28;20226;-62
2022/06/30 11:52:18;;;;;;;0.95;0.88;;;45.80;34.80;;;;;;5061567;28;20254;-64
2022/06/30 11:54:55;;;;;;;0.20;0.20;;;46.40;34.20;;;;;;5079881;28;20208;-64
2022/06/30 11:57:30;;;;;;;0.10;0.10;;;46.70;32.70;;;;;;5079063;28;20184;-61
2022/06/30 12:00:02;;;;;;;1.05;0.98;;;47.20;31.90;;;;;;5078792;28;20184;-63
2022/06/30 12:02:28;;;;;;;0.30;0.30;;;47.80;31.60;;;;;;5079600;28;20196;-64
2022/06/30 12:04:58;;;;;;;0.10;0.10;;;46.60;30.80;;;;;;5078906;28;20224;-63
2022/06/30 12:07:25;;;;;;;0.35;0.35;;;44.60;32.10;;;;;;5079365;28;20196;-63
2022/06/30 12:09:52;;;;;;;0.10;0.10;;;43.30;33.80;;;;;;5078925;28;20195;-63
2022/06/30 12:12:22;;;;;;;0.55;0.55;;;43.10;35.50;;;;;;5079097;28;20189;-63
2022/06/30 12:14:47;;;;;;;0.22;0.22;;;44.40;34.80;;;;;;5078678;28;20255;-61
2022/06/30 12:17:13;;;;;;;0.32;0.32;;;45.50;33.80;;;;;;5078454;28;20629;-63
2022/06/30 12:19:41;;;;;;;0.10;0.10;;;46.30;32.70;;;;;;5060594;28;20633;-63
2022/06/30 12:22:08;;;;;;;0.60;0.55;;;46.70;31.70;;;;;;5076697;28;20679;-64
2022/06/30 12:24:40;;;;;;;0.50;0.50;;;47.10;31.30;;;;;;5081965;28;20582;-64
2022/06/30 12:27:07;;;;;;;0.50;0.50;;;48.10;30.60;;;;;;5082140;28;20192;-62
2022/06/30 12:29:33;;;;;;;0.32;0.32;;;48.50;29.50;;;;;;5082391;28;20177;-62
2022/06/30 12:32:10;;;;;;;2.80;1.70;;;47.80;29.50;;;;;;5063329;28;20214;-64
2022/06/30 12:34:54;;;;;;;0.88;0.60;;;47.90;29.20;;;;;;5081249;28;20227;-64
2022/06/30 12:37:35;;;;;;;14.50;1.20;;;46.70;30.10;;;;;;5080915;28;20617;-65
2022/06/30 12:40:08;;;;;;;0.20;0.20;;;45.40;31.30;;;;;;5081145;28;20192;-62
2022/06/30 12:42:43;;;;;;;0.47;0.47;;;43.30;31.90;;;;;;5081555;28;20234;-63
2022/06/30 12:45:33;;;;;;;0.10;0.10;;;41.80;34.10;;;;;;5080629;28;20267;-62
2022/06/30 12:47:59;;;;;;;0.10;0.10;;;40.50;36.60;;;;;;5082692;28;20192;-64
2022/06/30 12:50:25;;;;;;;0.73;0.73;;;42.70;35.30;;;;;;5081538;28;20196;-62
2022/06/30 12:52:51;;;;;;;0.10;0.10;;;45.10;32.80;;;;;;5082285;28;20299;-62
2022/06/30 12:55:17;;;;;;;2.97;1.08;;;47.30;30.30;;;;;;5082081;28;20629;-63